createdAt,value
2023-09-27T00:02:25.924Z,101163.59
2023-09-27T00:04:53.741Z,101155.09
2023-09-27T00:07:21.891Z,101156.91
2023-09-27T00:09:49.801Z,101154.47
2023-09-27T00:12:17.407Z,101158.13
2023-09-27T00:14:45.408Z,101158.22
2023-09-27T00:17:13.257Z,101161.03
2023-09-27T00:19:41.417Z,101162.72
2023-09-27T00:22:11.097Z,101162.97
2023-09-27T00:24:40.336Z,101158.00
2023-09-27T00:27:08.760Z,101169.63
2023-09-27T00:29:36.372Z,101170.75
2023-09-27T00:32:04.611Z,101171.59
2023-09-27T00:34:32.771Z,101154.81
2023-09-27T00:37:01.326Z,101156.66
2023-09-27T00:39:29.096Z,101161.13
2023-09-27T00:41:56.793Z,101173.66
2023-09-27T00:44:24.542Z,101172.06
2023-09-27T00:46:52.710Z,101171.06
2023-09-27T00:49:21.145Z,101172.06
2023-09-27T00:51:49.043Z,101169.50
2023-09-27T00:54:17.303Z,101178.47
2023-09-27T00:56:47.166Z,101178.00
2023-09-27T00:59:17.296Z,101188.16
2023-09-27T01:01:46.108Z,101191.91
2023-09-27T01:04:17.512Z,101185.84
2023-09-27T01:06:45.618Z,101185.22
2023-09-27T01:09:13.262Z,101184.59
2023-09-27T01:11:41.329Z,101181.22
2023-09-27T01:14:09.016Z,101191.88
2023-09-27T01:16:36.727Z,101191.97
2023-09-27T01:19:04.930Z,101191.25
2023-09-27T01:21:32.848Z,101189.75
2023-09-27T01:24:00.536Z,101189.97
2023-09-27T01:26:31.944Z,101194.69
2023-09-27T01:28:59.967Z,101194.06
2023-09-27T01:31:27.658Z,101201.47
2023-09-27T01:33:56.731Z,101195.38
2023-09-27T01:36:24.400Z,101195.28
2023-09-27T01:38:52.216Z,101182.03
2023-09-27T01:41:20.061Z,101179.50
2023-09-27T01:43:47.801Z,101180.56
2023-09-27T01:46:15.598Z,101181.78
2023-09-27T01:48:43.278Z,101181.16
2023-09-27T01:51:10.923Z,101173.38
2023-09-27T01:53:38.563Z,101177.97
2023-09-27T01:56:06.289Z,101181.72
2023-09-27T01:58:34.197Z,101177.56
2023-09-27T02:01:01.911Z,101176.94
2023-09-27T02:03:29.635Z,101182.50
2023-09-27T02:05:58.944Z,101177.19
2023-09-27T02:08:26.677Z,101170.03
2023-09-27T02:10:54.475Z,101173.78
2023-09-27T02:13:22.286Z,101171.44
2023-09-27T02:15:49.986Z,101175.19
2023-09-27T02:18:18.256Z,101179.56
2023-09-27T02:20:46.936Z,101178.81
2023-09-27T02:23:14.976Z,101177.00
2023-09-27T02:25:42.985Z,101177.13
2023-09-27T02:28:11.695Z,101171.19
2023-09-27T02:30:39.543Z,101177.44
2023-09-27T02:33:07.319Z,101181.22
2023-09-27T02:35:37.987Z,101192.09
2023-09-27T02:38:05.842Z,101188.78
2023-09-27T02:40:33.739Z,101185.25
2023-09-27T02:43:01.508Z,101173.03
2023-09-27T02:45:29.312Z,101173.97
2023-09-27T02:47:57.128Z,101172.38
2023-09-27T02:50:25.089Z,101182.19
2023-09-27T02:52:53.024Z,101180.59
2023-09-27T02:55:20.761Z,101187.88
2023-09-27T02:57:54.237Z,101181.78
2023-09-27T03:00:24.183Z,101181.06
2023-09-27T03:02:52.390Z,101176.69
2023-09-27T03:05:21.749Z,101173.16
2023-09-27T03:07:49.743Z,101174.13
2023-09-27T03:10:17.868Z,101179.47
2023-09-27T03:15:59.915Z,101178.41
2023-09-27T03:18:27.820Z,101179.13
2023-09-27T03:20:55.448Z,101180.72
2023-09-27T03:23:23.346Z,101176.03
2023-09-27T03:25:51.077Z,101178.38
2023-09-27T03:28:18.817Z,101191.44
2023-09-27T03:30:48.439Z,101184.09
2023-09-27T03:33:16.953Z,101192.59
2023-09-27T03:35:44.607Z,101181.72
2023-09-27T03:38:12.534Z,101191.41
2023-09-27T03:40:43.024Z,101183.41
2023-09-27T03:43:11.133Z,101175.41
2023-09-27T03:45:39.005Z,101182.91
2023-09-27T03:48:08.916Z,101189.31
2023-09-27T03:50:36.804Z,101191.97
2023-09-27T03:53:05.782Z,101175.22
2023-09-27T03:55:33.624Z,101184.81
2023-09-27T03:58:02.000Z,101186.41
2023-09-27T04:00:30.048Z,101189.94
2023-09-27T04:02:57.807Z,101188.09
2023-09-27T04:05:27.803Z,101181.09
2023-09-27T04:07:55.677Z,101184.72
2023-09-27T04:10:25.863Z,101179.41
2023-09-27T04:12:53.536Z,101183.00
2023-09-27T04:15:21.203Z,101190.91
2023-09-27T04:17:49.350Z,101195.47
2023-09-27T04:20:19.212Z,101204.44
2023-09-27T04:22:49.130Z,101206.50
2023-09-27T04:25:18.460Z,101204.13
2023-09-27T04:27:47.878Z,101197.34
2023-09-27T04:30:16.312Z,101188.72
2023-09-27T04:32:45.915Z,101183.72
2023-09-27T04:35:17.239Z,101181.38
2023-09-27T04:37:45.889Z,101196.72
2023-09-27T04:40:15.108Z,101196.22
2023-09-27T04:42:43.737Z,101202.72
2023-09-27T04:45:12.984Z,101202.91
2023-09-27T04:47:42.089Z,101203.13
2023-09-27T04:50:13.402Z,101194.50
2023-09-27T04:52:43.166Z,101203.56
2023-09-27T04:55:11.345Z,101198.38
2023-09-27T04:57:39.105Z,101203.91
2023-09-27T05:00:12.648Z,101204.03
2023-09-27T05:02:40.428Z,101202.31
2023-09-27T05:05:09.388Z,101198.91
2023-09-27T05:07:37.272Z,101198.03
2023-09-27T05:10:05.348Z,101205.31
2023-09-27T05:12:32.997Z,101199.13
2023-09-27T05:15:00.632Z,101203.69
2023-09-27T05:17:28.344Z,101193.91
2023-09-27T05:19:56.007Z,101190.38
2023-09-27T05:22:23.733Z,101194.94
2023-09-27T05:24:51.493Z,101191.44
2023-09-27T05:27:19.158Z,101205.59
2023-09-27T05:29:47.015Z,101203.91
2023-09-27T05:32:14.745Z,101210.84
2023-09-27T05:34:42.398Z,101209.13
2023-09-27T05:37:10.050Z,101212.66
2023-09-27T05:39:38.404Z,101205.59
2023-09-27T05:42:06.096Z,101198.69
2023-09-27T05:44:33.706Z,101182.81
2023-09-27T05:47:01.712Z,101178.69
2023-09-27T05:49:30.908Z,101190.38
2023-09-27T05:51:58.556Z,101193.16
2023-09-27T05:54:26.216Z,101191.56
2023-09-27T05:56:55.545Z,101191.78
2023-09-27T05:59:25.973Z,101198.16
2023-09-27T06:01:55.687Z,101204.44
2023-09-27T06:04:23.657Z,101206.34
2023-09-27T06:06:52.119Z,101220.63
2023-09-27T06:09:19.822Z,101227.75
2023-09-27T06:11:47.855Z,101227.84
2023-09-27T06:14:15.812Z,101221.66
2023-09-27T06:16:46.520Z,101234.00
2023-09-27T06:19:14.297Z,101230.41
2023-09-27T06:21:41.954Z,101225.94
2023-09-27T06:24:10.221Z,101222.44
2023-09-27T06:26:37.815Z,101224.13
2023-09-27T06:29:05.801Z,101223.16
2023-09-27T06:31:35.440Z,101225.53
2023-09-27T06:34:03.225Z,101223.38
2023-09-27T06:36:34.390Z,101209.66
2023-09-27T06:39:02.224Z,101201.16
2023-09-27T06:41:30.021Z,101194.31
2023-09-27T06:43:58.023Z,101190.16
2023-09-27T06:46:27.776Z,101186.72
2023-09-27T06:48:57.765Z,101172.75
2023-09-27T06:51:25.813Z,101173.91
2023-09-27T06:53:53.706Z,101160.88
2023-09-27T06:56:21.428Z,101154.03
2023-09-27T06:58:50.428Z,101149.09
2023-09-27T07:01:19.361Z,101151.31
2023-09-27T07:03:49.629Z,101142.03
2023-09-27T07:06:17.557Z,101136.34
2023-09-27T07:08:48.273Z,101129.81
2023-09-27T07:11:16.321Z,101128.66
2023-09-27T07:13:44.077Z,101123.78
2023-09-27T07:16:28.435Z,101124.41
2023-09-27T07:19:00.826Z,101123.09
2023-09-27T07:21:29.466Z,101125.41
2023-09-27T07:23:57.294Z,101118.03
2023-09-27T07:26:25.032Z,101118.41
2023-09-27T07:28:53.026Z,101117.00
2023-09-27T07:31:21.382Z,101110.22
2023-09-27T07:33:55.800Z,101109.78
2023-09-27T07:36:26.812Z,101105.81
2023-09-27T07:38:59.249Z,101103.50
2023-09-27T07:41:27.406Z,101107.63
2023-09-27T07:43:55.305Z,101112.59
2023-09-27T07:46:23.261Z,101112.25
2023-09-27T07:48:51.435Z,101129.72
2023-09-27T07:51:19.585Z,101130.47
2023-09-27T07:53:47.183Z,101142.44
2023-09-27T07:56:21.515Z,101151.81
2023-09-27T07:58:53.193Z,101153.16
2023-09-27T08:01:23.064Z,101147.44
2023-09-27T08:03:54.629Z,101149.63
2023-09-27T08:06:23.221Z,101140.28
2023-09-27T08:08:53.352Z,101135.56
2023-09-27T08:11:21.422Z,101131.78
2023-09-27T08:13:49.092Z,101127.28
2023-09-27T08:16:17.762Z,101124.63
2023-09-27T08:18:45.443Z,101115.88
2023-09-27T08:21:13.164Z,101117.56
2023-09-27T08:23:42.427Z,101115.63
2023-09-27T08:26:15.838Z,101116.22
2023-09-27T08:28:44.366Z,101104.44
2023-09-27T08:31:12.745Z,101112.09
2023-09-27T08:33:40.531Z,101111.59
2023-09-27T08:36:08.169Z,101116.44
2023-09-27T08:38:36.149Z,101126.38
2023-09-27T08:41:06.869Z,101138.28
2023-09-27T08:43:34.952Z,101134.13
2023-09-27T08:46:04.181Z,101136.19
2023-09-27T08:48:32.664Z,101127.91
2023-09-27T08:51:06.280Z,101117.81
2023-09-27T08:53:36.371Z,101119.63
2023-09-27T08:56:05.570Z,101113.06
2023-09-27T08:58:35.506Z,101121.91
2023-09-27T09:01:04.702Z,101125.31
2023-09-27T09:03:33.410Z,101124.19
2023-09-27T09:06:02.429Z,101112.41
2023-09-27T09:08:43.185Z,101113.00
2023-09-27T09:11:13.381Z,101108.16
2023-09-27T09:16:52.935Z,101120.00
2023-09-27T09:19:43.003Z,101121.03
2023-09-27T09:22:14.526Z,101126.59
2023-09-27T09:24:45.053Z,101123.50
2023-09-27T09:27:17.236Z,101129.34
2023-09-27T09:29:49.780Z,101120.06
2023-09-27T09:32:22.037Z,101117.13
2023-09-27T09:34:51.754Z,101104.47
2023-09-27T09:37:20.140Z,101102.38
2023-09-27T09:39:52.767Z,101092.94
2023-09-27T09:42:36.074Z,101079.41
2023-09-27T09:45:09.654Z,101066.63
2023-09-27T09:47:40.923Z,101069.44
2023-09-27T09:50:18.495Z,101056.75
2023-09-27T09:52:58.853Z,101038.72
2023-09-27T09:55:52.090Z,101047.19
2023-09-27T09:58:33.702Z,101044.50
2023-09-27T10:01:04.036Z,101042.41
2023-09-27T10:03:34.622Z,101045.81
2023-09-27T10:06:03.446Z,101036.09
2023-09-27T10:08:39.898Z,101039.72
2023-09-27T10:11:07.953Z,101037.91
2023-09-27T10:13:37.367Z,101034.25
2023-09-27T10:16:55.206Z,101024.53
2023-09-27T10:19:38.207Z,101023.66
2023-09-27T10:22:08.022Z,101015.63
2023-09-27T10:24:42.402Z,101014.50
2023-09-27T10:27:10.206Z,101001.69
2023-09-27T10:30:07.360Z,100984.66
2023-09-27T10:32:35.340Z,100986.91
2023-09-27T10:35:18.748Z,100980.28
2023-09-27T10:38:00.530Z,100968.19
2023-09-27T10:40:28.497Z,100968.47
2023-09-27T10:42:57.112Z,100967.91
2023-09-27T10:45:24.968Z,100968.63
2023-09-27T10:47:55.237Z,100967.91
2023-09-27T10:50:31.348Z,100955.09
2023-09-27T10:53:00.500Z,100948.59
2023-09-27T10:55:38.846Z,100946.63
2023-09-27T10:58:07.596Z,100939.84
2023-09-27T11:00:35.399Z,100923.38
2023-09-27T11:03:17.798Z,100915.03
2023-09-27T11:05:45.912Z,100903.44
2023-09-27T11:08:24.280Z,100891.31
2023-09-27T11:10:54.491Z,100889.19
2023-09-27T11:13:22.777Z,100884.56
2023-09-27T11:15:52.127Z,100884.69
2023-09-27T11:18:20.070Z,100884.00
2023-09-27T11:20:48.259Z,100867.19
2023-09-27T11:23:16.300Z,100868.03
2023-09-27T11:26:21.450Z,100848.03
2023-09-27T11:29:14.730Z,100834.78
2023-09-27T11:31:42.710Z,100825.59
2023-09-27T11:34:22.424Z,100819.25
2023-09-27T11:36:55.041Z,100806.56
2023-09-27T11:39:30.951Z,100803.59
2023-09-27T11:42:00.581Z,100795.94
2023-09-27T11:44:29.288Z,100784.13
2023-09-27T11:47:10.456Z,100774.38
2023-09-27T11:49:38.262Z,100772.28
2023-09-27T11:52:11.783Z,100758.03
2023-09-27T11:54:46.715Z,100743.91
2023-09-27T11:57:14.539Z,100745.00
2023-09-27T11:59:42.261Z,100742.63
2023-09-27T12:02:20.674Z,100742.06
2023-09-27T12:04:54.742Z,100738.00
2023-09-27T12:07:22.597Z,100718.69
2023-09-27T12:09:50.283Z,100710.94
2023-09-27T12:12:17.975Z,100696.16
2023-09-27T12:14:46.254Z,100696.56
2023-09-27T12:17:14.053Z,100692.38
2023-09-27T12:19:41.845Z,100678.28
2023-09-27T12:22:09.532Z,100672.06
2023-09-27T12:24:37.197Z,100661.50
2023-09-27T12:27:05.605Z,100648.94
2023-09-27T12:29:35.037Z,100649.81
2023-09-27T12:32:03.050Z,100648.81
2023-09-27T12:34:32.071Z,100644.28
2023-09-27T12:36:59.970Z,100637.38
2023-09-27T12:39:27.684Z,100624.16
2023-09-27T12:41:55.424Z,100633.19
2023-09-27T12:44:23.180Z,100626.13
2023-09-27T12:46:50.993Z,100613.84
2023-09-27T12:49:19.278Z,100597.09
2023-09-27T12:51:49.818Z,100608.66
2023-09-27T12:54:17.823Z,100608.81
2023-09-27T12:56:46.130Z,100611.78
2023-09-27T12:59:13.922Z,100599.53
2023-09-27T13:01:41.600Z,100580.22
2023-09-27T13:04:10.673Z,100567.97
2023-09-27T13:06:39.130Z,100558.38
2023-09-27T13:09:07.254Z,100546.97
2023-09-27T13:11:35.257Z,100519.34
2023-09-27T13:14:03.002Z,100512.31
2023-09-27T13:16:30.692Z,100481.75
2023-09-27T13:18:58.805Z,100468.06
2023-09-27T13:21:28.302Z,100452.66
2023-09-27T13:23:55.957Z,100443.78
2023-09-27T13:26:23.772Z,100432.22
2023-09-27T13:28:51.502Z,100423.19
2023-09-27T13:31:19.479Z,100421.53
2023-09-27T13:33:55.059Z,100408.13
2023-09-27T13:36:36.519Z,100417.00
2023-09-27T13:39:07.106Z,100423.19
2023-09-27T13:41:47.950Z,100416.16
2023-09-27T13:44:16.345Z,100399.97
2023-09-27T13:46:45.608Z,100375.69
2023-09-27T13:49:14.114Z,100350.75
2023-09-27T13:51:42.538Z,100342.84
2023-09-27T13:54:10.540Z,100324.97
2023-09-27T13:56:38.418Z,100316.78
2023-09-27T13:59:07.310Z,100301.53
2023-09-27T14:01:35.559Z,100297.72
2023-09-27T14:04:04.160Z,100292.38
2023-09-27T14:06:31.888Z,100288.00
2023-09-27T14:09:00.015Z,100299.88
2023-09-27T14:11:27.949Z,100285.13
2023-09-27T14:13:55.927Z,100278.38
2023-09-27T14:16:24.114Z,100264.63
2023-09-27T14:18:52.306Z,100257.72
2023-09-27T14:21:20.338Z,100243.81
2023-09-27T14:23:48.072Z,100235.91
2023-09-27T14:26:16.282Z,100232.56
2023-09-27T14:28:44.111Z,100236.22
2023-09-27T14:31:11.767Z,100219.31
2023-09-27T14:33:39.734Z,100212.13
2023-09-27T14:36:07.765Z,100206.47
2023-09-27T14:38:36.305Z,100192.94
2023-09-27T14:41:10.749Z,100181.09
2023-09-27T14:43:39.109Z,100179.25
2023-09-27T14:46:13.971Z,100167.53
2023-09-27T14:48:41.957Z,100153.31
2023-09-27T14:51:13.497Z,100154.16
2023-09-27T14:53:42.542Z,100151.16
2023-09-27T14:56:11.683Z,100149.31
2023-09-27T14:58:40.672Z,100125.75
2023-09-27T15:01:09.168Z,100121.06
2023-09-27T15:03:37.182Z,100102.16
2023-09-27T15:06:07.005Z,100093.81
2023-09-27T15:08:35.171Z,100068.22
2023-09-27T15:11:04.437Z,100049.16
2023-09-27T15:13:32.593Z,100032.91
2023-09-27T15:16:01.643Z,100030.94
2023-09-27T15:18:29.592Z,100020.88
2023-09-27T15:20:57.467Z,100017.03
2023-09-27T15:23:25.071Z,100012.19
2023-09-27T15:25:52.674Z,100001.47
2023-09-27T15:28:20.428Z,99998.81
2023-09-27T15:30:48.023Z,99983.56
2023-09-27T15:33:15.673Z,99976.22
2023-09-27T15:35:55.108Z,99951.94
2023-09-27T15:38:22.921Z,99941.72
2023-09-27T15:40:50.774Z,99930.03
2023-09-27T15:43:18.827Z,99920.84
2023-09-27T15:45:59.682Z,99904.91
2023-09-27T15:48:31.307Z,99885.16
2023-09-27T15:51:00.751Z,99880.47
2023-09-27T15:53:30.061Z,99885.00
2023-09-27T15:55:57.746Z,99894.72
2023-09-27T15:58:26.667Z,99882.00
2023-09-27T16:00:54.435Z,99867.59
2023-09-27T16:03:22.627Z,99867.44
2023-09-27T16:05:51.416Z,99842.31
2023-09-27T16:08:23.008Z,99834.97
2023-09-27T16:10:55.386Z,99827.56
2023-09-27T16:13:24.104Z,99833.63
2023-09-27T16:15:52.895Z,99822.91
2023-09-27T16:18:21.970Z,99810.81
2023-09-27T16:20:49.661Z,99803.28
2023-09-27T16:23:17.683Z,99806.31
2023-09-27T16:25:47.640Z,99790.03
2023-09-27T16:28:16.241Z,99776.50
2023-09-27T16:30:44.385Z,99764.94
2023-09-27T16:33:12.346Z,99762.25
2023-09-27T16:35:41.349Z,99755.06
2023-09-27T16:38:11.069Z,99726.41
2023-09-27T16:40:41.053Z,99713.00
2023-09-27T16:43:09.109Z,99700.47
2023-09-27T16:45:40.781Z,99696.94
2023-09-27T16:48:08.982Z,99693.25
2023-09-27T16:50:36.626Z,99674.34
2023-09-27T16:53:04.738Z,99671.31
2023-09-27T16:55:32.671Z,99674.00
2023-09-27T16:58:00.371Z,99658.22
2023-09-27T17:00:28.300Z,99639.09
2023-09-27T17:02:56.004Z,99625.34
2023-09-27T17:05:23.897Z,99606.44
2023-09-27T17:07:51.864Z,99579.63
2023-09-27T17:10:19.513Z,99576.56
2023-09-27T17:12:47.271Z,99568.38
2023-09-27T17:15:15.379Z,99560.13
2023-09-27T17:17:43.088Z,99549.06
2023-09-27T17:20:11.552Z,99546.22
2023-09-27T17:22:39.304Z,99538.81
2023-09-27T17:25:09.220Z,99525.41
2023-09-27T17:27:36.983Z,99519.88
2023-09-27T17:30:06.663Z,99524.22
2023-09-27T17:32:34.613Z,99513.13
2023-09-27T17:35:02.363Z,99510.94
2023-09-27T17:37:30.173Z,99514.28
2023-09-27T17:39:57.806Z,99505.03
2023-09-27T17:42:25.488Z,99496.66
2023-09-27T17:44:53.179Z,99476.66
2023-09-27T17:47:20.892Z,99462.88
2023-09-27T17:49:48.543Z,99434.03
2023-09-27T17:52:16.221Z,99407.88
2023-09-27T17:54:44.082Z,99414.06
2023-09-27T17:57:11.861Z,99403.16
2023-09-27T17:59:40.501Z,99397.63
2023-09-27T18:02:08.733Z,99398.25
2023-09-27T18:04:36.439Z,99381.31
2023-09-27T18:07:04.215Z,99379.31
2023-09-27T18:09:35.972Z,99388.84
2023-09-27T18:12:04.143Z,99375.88
2023-09-27T18:14:31.738Z,99384.56
2023-09-27T18:16:59.473Z,99365.31
2023-09-27T18:19:27.398Z,99362.00
2023-09-27T18:21:55.055Z,99356.19
2023-09-27T18:24:22.832Z,99349.97
2023-09-27T18:26:50.572Z,99349.13
2023-09-27T18:29:18.213Z,99350.81
2023-09-27T18:31:45.929Z,99344.44
2023-09-27T18:34:15.042Z,99350.44
2023-09-27T18:36:42.838Z,99324.47
2023-09-27T18:39:10.466Z,99311.03
2023-09-27T18:41:38.105Z,99310.00
2023-09-27T18:44:06.321Z,99316.22
2023-09-27T18:46:35.185Z,99313.72
2023-09-27T18:49:03.319Z,99307.34
2023-09-27T18:51:31.360Z,99305.47
2023-09-27T18:53:58.981Z,99297.06
2023-09-27T18:56:29.703Z,99279.94
2023-09-27T18:59:00.110Z,99270.69
2023-09-27T19:01:28.176Z,99271.34
2023-09-27T19:03:56.154Z,99258.56
2023-09-27T19:06:25.065Z,99246.81
2023-09-27T19:08:54.041Z,99251.00
2023-09-27T19:11:22.113Z,99247.91
2023-09-27T19:13:50.595Z,99240.50
2023-09-27T19:16:18.620Z,99246.31
2023-09-27T19:18:46.804Z,99233.56
2023-09-27T19:21:14.556Z,99245.78
2023-09-27T19:23:42.648Z,99225.56
2023-09-27T19:26:11.054Z,99228.50
2023-09-27T19:28:39.153Z,99226.53
2023-09-27T19:31:10.667Z,99207.19
2023-09-27T19:33:43.110Z,99204.75
2023-09-27T19:36:20.640Z,99187.25
2023-09-27T19:38:49.244Z,99169.09
2023-09-27T19:41:17.770Z,99159.41
2023-09-27T19:43:46.138Z,99144.56
2023-09-27T19:46:20.061Z,99131.56
2023-09-27T19:48:49.704Z,99124.75
2023-09-27T19:51:22.390Z,99107.66
2023-09-27T19:53:52.130Z,99105.78
2023-09-27T19:56:22.152Z,99088.63
2023-09-27T19:58:50.351Z,99089.47
2023-09-27T20:01:33.247Z,99081.22
2023-09-27T20:04:01.459Z,99076.06
2023-09-27T20:06:31.244Z,99069.50
2023-09-27T20:08:59.571Z,99074.69
2023-09-27T20:11:27.446Z,99052.97
2023-09-27T20:13:59.029Z,99051.75
2023-09-27T20:16:29.542Z,99035.03
2023-09-27T20:18:57.424Z,99038.53
2023-09-27T20:21:25.292Z,99031.34
2023-09-27T20:23:53.609Z,99012.53
2023-09-27T20:26:22.979Z,99009.00
2023-09-27T20:28:51.605Z,99017.69
2023-09-27T20:31:20.976Z,99003.22
2023-09-27T20:33:48.969Z,98986.09
2023-09-27T20:36:16.852Z,98969.34
2023-09-27T20:38:46.294Z,98971.38
2023-09-27T20:41:19.875Z,98955.47
2023-09-27T20:43:47.587Z,98956.13
2023-09-27T20:46:17.449Z,98945.38
2023-09-27T20:48:45.703Z,98937.50
2023-09-27T20:51:15.258Z,98940.19
2023-09-27T20:53:43.187Z,98924.69
2023-09-27T20:56:10.949Z,98914.97
2023-09-27T20:58:42.181Z,98918.94
2023-09-27T21:01:29.482Z,98910.00
2023-09-27T21:04:00.289Z,98890.81
2023-09-27T21:06:29.113Z,98886.06
2023-09-27T21:08:58.280Z,98864.34
2023-09-27T21:11:26.128Z,98849.91
2023-09-27T21:13:58.473Z,98843.50
2023-09-27T21:16:27.471Z,98830.06
2023-09-27T21:18:55.945Z,98807.53
2023-09-27T21:21:24.183Z,98810.44
2023-09-27T21:23:53.541Z,98787.06
2023-09-27T21:26:21.794Z,98779.22
2023-09-27T21:28:49.777Z,98772.41
2023-09-27T21:31:17.499Z,98767.22
2023-09-27T21:33:45.238Z,98762.06
2023-09-27T21:36:13.533Z,98754.19
2023-09-27T21:38:41.180Z,98749.88
2023-09-27T21:41:08.898Z,98741.19
2023-09-27T21:43:36.909Z,98755.03
2023-09-27T21:46:15.041Z,98734.16
2023-09-27T21:48:42.867Z,98731.69
2023-09-27T21:51:10.474Z,98732.09
2023-09-27T21:53:40.984Z,98720.09
2023-09-27T21:56:11.099Z,98730.84
2023-09-27T21:58:38.864Z,98721.53
2023-09-27T22:01:13.983Z,98703.16
2023-09-27T22:03:42.553Z,98702.56
2023-09-27T22:06:10.299Z,98706.25
2023-09-27T22:08:38.110Z,98697.59
2023-09-27T22:11:05.997Z,98691.59
2023-09-27T22:13:39.364Z,98679.19
2023-09-27T22:16:13.613Z,98676.50
2023-09-27T22:19:05.415Z,98674.66
2023-09-27T22:21:38.630Z,98677.50
2023-09-27T22:24:13.895Z,98669.44
2023-09-27T22:26:46.565Z,98672.13
2023-09-27T22:29:15.545Z,98673.00
2023-09-27T22:31:43.982Z,98671.97
2023-09-27T22:34:13.082Z,98671.97
2023-09-27T22:36:52.328Z,98679.81
2023-09-27T22:39:20.748Z,98680.63
2023-09-27T22:41:53.624Z,98662.47
2023-09-27T22:44:23.042Z,98669.47
2023-09-27T22:46:55.235Z,98669.28
2023-09-27T22:49:24.388Z,98670.13
2023-09-27T22:51:53.467Z,98671.16
2023-09-27T22:54:23.146Z,98671.97
2023-09-27T22:56:53.519Z,98669.28
2023-09-27T22:59:22.954Z,98676.31
2023-09-27T23:01:56.197Z,98677.13
2023-09-27T23:04:24.707Z,98687.03
2023-09-27T23:07:02.731Z,98680.66
2023-09-27T23:09:37.487Z,98690.38
2023-09-27T23:12:18.751Z,98688.72
2023-09-27T23:15:06.013Z,98696.97
2023-09-27T23:18:01.299Z,98704.19
2023-09-27T23:20:31.746Z,98719.50
2023-09-27T23:23:08.328Z,98726.50
2023-09-27T23:25:53.109Z,98725.69
2023-09-27T23:28:39.275Z,98722.78
2023-09-27T23:31:11.838Z,98737.06
2023-09-27T23:33:44.110Z,98747.78
2023-09-27T23:36:27.243Z,98759.13
2023-09-27T23:38:58.203Z,98777.94
2023-09-27T23:41:31.491Z,98786.22
2023-09-27T23:44:06.005Z,98802.50
2023-09-27T23:46:40.117Z,98805.81
2023-09-27T23:49:08.193Z,98819.84
2023-09-27T23:51:36.006Z,98833.09
2023-09-27T23:54:04.215Z,98840.53
2023-09-27T23:56:32.059Z,98856.88
2023-09-27T23:59:20.968Z,98874.22
